Time;durP1;ratioP1;P1;durP2;ratioP2;P2;SDS_P1;SDS_P2;PMS_P1;PMS_P2;Temp;Humidity;BMP_temperature;BMP_pressure;BME280_temperature;BME280_humidity;BME280_pressure;Samples;Min_cycle;Max_cycle;Signal;HPM_P1;HPM_P2
2022/02/18 00:01:38;;;;;;;11.48;1.75;;;7.00;99.90;;;;;;4918775;28;20102;-86
2022/02/18 00:04:04;;;;;;;8.45;2.75;;;7.00;99.90;;;;;;4947008;28;20042;-86
2022/02/18 00:06:30;;;;;;;9.75;1.42;;;7.00;99.90;;;;;;4912425;28;20122;-85
2022/02/18 00:08:56;;;;;;;2.40;0.80;;;7.00;99.90;;;;;;4930849;28;20531;-85
2022/02/18 00:11:21;;;;;;;10.73;2.45;;;6.90;99.90;;;;;;4916103;28;20028;-86
2022/02/18 00:13:47;;;;;;;4.50;1.30;;;7.00;99.90;;;;;;4921329;28;20352;-86
2022/02/18 00:16:12;;;;;;;10.18;2.10;;;7.00;99.90;;;;;;4920826;28;20388;-86
2022/02/18 00:18:38;;;;;;;8.85;1.83;;;6.90;99.90;;;;;;4921976;28;20102;-85
2022/02/18 00:21:06;;;;;;;16.15;3.08;;;6.90;99.90;;;;;;4935240;28;20101;-86
2022/02/18 00:23:31;;;;;;;12.05;3.13;;;6.90;99.90;;;;;;4911736;28;20110;-86
2022/02/18 00:25:57;;;;;;;5.68;1.25;;;6.90;99.90;;;;;;4918767;28;20105;-85
2022/02/18 00:28:22;;;;;;;6.63;1.27;;;6.80;99.90;;;;;;4933094;28;20098;-86
2022/02/18 00:30:48;;;;;;;9.80;2.72;;;6.80;99.90;;;;;;4915505;28;20063;-85
2022/02/18 00:33:18;;;;;;;9.93;2.78;;;6.80;99.90;;;;;;4922074;28;20039;-86
2022/02/18 00:35:44;;;;;;;7.10;1.52;;;6.70;99.90;;;;;;4917358;28;20391;-86
2022/02/18 00:38:09;;;;;;;5.97;1.40;;;6.80;99.90;;;;;;4917662;28;20041;-86
2022/02/18 00:40:35;;;;;;;16.02;2.78;;;6.70;99.90;;;;;;4917095;28;20039;-86
2022/02/18 00:43:01;;;;;;;7.53;1.33;;;6.70;99.90;;;;;;4934214;28;20378;-86
2022/02/18 00:45:27;;;;;;;17.58;2.15;;;6.60;99.90;;;;;;4917163;28;20027;-85
2022/02/18 00:47:52;;;;;;;12.98;1.92;;;6.70;99.90;;;;;;4917054;28;20055;-86
2022/02/18 00:50:18;;;;;;;4.07;1.77;;;6.80;99.90;;;;;;4914243;28;20070;-86
2022/02/18 00:52:44;;;;;;;8.38;2.13;;;6.70;99.90;;;;;;4915836;28;20031;-86
2022/02/18 00:55:10;;;;;;;17.60;2.13;;;6.60;99.90;;;;;;4914444;28;20701;-87
2022/02/18 00:57:36;;;;;;;7.05;1.27;;;6.70;99.90;;;;;;4932317;28;20035;-87
2022/02/18 01:00:03;;;;;;;16.02;2.67;;;6.60;99.90;;;;;;4916995;28;20035;-86
2022/02/18 01:02:29;;;;;;;7.22;1.63;;;6.70;99.90;;;;;;4910422;28;20077;-86
2022/02/18 01:04:54;;;;;;;11.95;2.25;;;6.70;99.90;;;;;;4912483;28;20431;-86
2022/02/18 01:07:20;;;;;;;11.05;1.58;;;6.60;99.90;;;;;;4911968;28;20122;-86
2022/02/18 01:09:45;;;;;;;15.05;2.95;;;6.60;99.90;;;;;;4912928;28;20059;-86
2022/02/18 01:12:11;;;;;;;19.60;2.15;;;6.70;99.90;;;;;;4917184;28;20110;-86
2022/02/18 01:14:37;;;;;;;12.20;1.83;;;6.80;99.90;;;;;;4914307;28;20033;-86
2022/02/18 01:17:02;;;;;;;21.90;3.40;;;6.70;99.90;;;;;;4920111;28;20475;-87
2022/02/18 01:19:28;;;;;;;15.05;2.80;;;6.80;99.90;;;;;;4915143;28;20078;-86
2022/02/18 01:21:53;;;;;;;13.05;3.20;;;6.80;99.90;;;;;;4918968;28;20027;-86
2022/02/18 01:24:19;;;;;;;11.35;2.53;;;6.90;99.90;;;;;;4921990;28;20027;-86
2022/02/18 01:26:44;;;;;;;14.07;2.72;;;6.90;99.90;;;;;;4921888;28;20038;-85
2022/02/18 01:29:10;;;;;;;7.93;1.10;;;6.80;99.90;;;;;;4920007;28;20074;-86
2022/02/18 01:31:37;;;;;;;6.72;1.35;;;6.90;99.90;;;;;;4921688;28;20035;-86
2022/02/18 01:34:02;;;;;;;14.02;2.30;;;6.90;99.90;;;;;;4915536;28;20479;-86
2022/02/18 01:36:28;;;;;;;13.10;2.35;;;6.90;99.90;;;;;;4912525;28;20031;-86
2022/02/18 01:38:54;;;;;;;13.98;2.63;;;6.90;99.90;;;;;;4922920;28;20102;-86
2022/02/18 01:41:21;;;;;;;8.70;1.55;;;6.90;99.90;;;;;;4917470;28;20038;-86
2022/02/18 01:43:51;;;;;;;17.88;3.42;;;6.90;99.90;;;;;;4925010;28;20024;-86
2022/02/18 01:46:17;;;;;;;6.05;2.13;;;6.90;99.90;;;;;;4925988;28;20118;-86
2022/02/18 01:48:42;;;;;;;10.55;1.08;;;6.90;99.90;;;;;;4924139;28;20194;-86
2022/02/18 01:51:08;;;;;;;10.10;2.03;;;6.90;99.90;;;;;;4934385;28;20045;-86
2022/02/18 01:53:34;;;;;;;15.68;2.17;;;6.90;99.90;;;;;;4921738;28;20030;-86
2022/02/18 01:56:00;;;;;;;18.40;1.92;;;7.00;99.90;;;;;;4934329;28;20045;-86
2022/02/18 01:58:26;;;;;;;8.98;2.30;;;6.90;99.90;;;;;;4930666;28;20093;-86
2022/02/18 02:00:52;;;;;;;12.43;2.50;;;6.90;99.90;;;;;;4919102;28;20023;-87
2022/02/18 02:03:18;;;;;;;7.15;1.60;;;6.90;99.90;;;;;;4916800;28;20045;-87
2022/02/18 02:05:45;;;;;;;14.35;1.25;;;7.00;99.90;;;;;;4914778;28;20336;-86
2022/02/18 02:08:11;;;;;;;12.18;2.83;;;7.00;99.90;;;;;;4922893;29;20053;-86
2022/02/18 02:10:37;;;;;;;10.60;1.85;;;7.00;99.90;;;;;;4932056;28;20035;-86
2022/02/18 02:13:03;;;;;;;18.15;2.88;;;7.00;99.90;;;;;;4910739;28;20150;-86
2022/02/18 02:15:29;;;;;;;15.95;2.72;;;6.90;99.90;;;;;;4922775;28;20058;-86
2022/02/18 02:17:57;;;;;;;17.90;2.47;;;6.90;99.90;;;;;;4934206;28;20620;-86
2022/02/18 02:20:22;;;;;;;12.68;1.92;;;6.90;99.90;;;;;;4930481;28;20032;-86
2022/02/18 02:22:48;;;;;;;16.45;3.50;;;6.90;99.90;;;;;;4921611;28;20042;-86
2022/02/18 02:25:14;;;;;;;8.00;1.23;;;6.90;99.90;;;;;;4913667;28;20333;-86
2022/02/18 02:27:40;;;;;;;17.65;2.28;;;7.00;99.90;;;;;;4912405;28;20618;-86
2022/02/18 02:30:07;;;;;;;13.05;2.70;;;7.00;99.90;;;;;;4926601;28;20035;-86
2022/02/18 02:32:33;;;;;;;4.95;1.15;;;7.00;99.90;;;;;;4913813;28;20036;-86
2022/02/18 02:34:58;;;;;;;17.98;2.50;;;7.00;99.90;;;;;;4924074;28;20112;-86
2022/02/18 02:37:24;;;;;;;15.57;2.83;;;7.00;99.90;;;;;;4919150;28;20061;-86
2022/02/18 02:39:49;;;;;;;9.88;2.22;;;7.00;99.90;;;;;;4923655;28;20058;-86
2022/02/18 02:42:15;;;;;;;12.18;2.03;;;7.00;99.90;;;;;;4927056;28;20023;-86
2022/02/18 02:44:40;;;;;;;18.15;2.88;;;7.00;99.90;;;;;;4918179;28;20035;-86
2022/02/18 02:47:06;;;;;;;18.17;2.83;;;7.00;99.90;;;;;;4932737;28;20047;-86
2022/02/18 02:49:32;;;;;;;8.85;1.73;;;7.10;99.90;;;;;;4920077;28;20027;-86
2022/02/18 02:51:57;;;;;;;13.30;2.13;;;7.00;99.90;;;;;;4911324;28;20031;-86
2022/02/18 02:54:23;;;;;;;15.65;2.67;;;7.10;99.90;;;;;;4910294;28;20106;-87
2022/02/18 02:56:48;;;;;;;11.68;2.72;;;7.10;99.90;;;;;;4921132;28;20038;-87
2022/02/18 02:59:14;;;;;;;21.27;3.80;;;6.90;99.90;;;;;;4920659;28;20587;-87
2022/02/18 03:01:39;;;;;;;14.25;2.92;;;6.90;99.90;;;;;;4924082;28;20035;-88
2022/02/18 03:04:05;;;;;;;14.13;2.78;;;7.00;99.90;;;;;;4920883;28;20023;-87
2022/02/18 03:06:31;;;;;;;10.88;2.03;;;7.00;99.90;;;;;;4931216;28;20035;-87
2022/02/18 03:08:56;;;;;;;14.43;2.47;;;7.00;99.90;;;;;;4931828;28;20038;-87
2022/02/18 03:11:22;;;;;;;20.50;2.95;;;7.10;99.90;;;;;;4909219;28;20093;-87
2022/02/18 03:13:52;;;;;;;14.18;2.58;;;7.10;99.90;;;;;;4917899;28;20118;-87
2022/02/18 03:16:18;;;;;;;12.40;3.65;;;7.00;99.90;;;;;;4918383;28;20395;-87
2022/02/18 03:18:43;;;;;;;3.10;1.40;;;7.00;99.90;;;;;;4918095;28;20407;-87
2022/02/18 03:21:09;;;;;;;22.83;3.10;;;7.00;99.90;;;;;;4934060;28;20043;-87
2022/02/18 03:23:35;;;;;;;10.90;2.15;;;7.00;99.90;;;;;;4918634;28;20089;-87
2022/02/18 03:26:01;;;;;;;15.27;1.77;;;7.00;99.90;;;;;;4925756;28;20035;-87
2022/02/18 03:28:26;;;;;;;8.27;2.28;;;7.00;99.90;;;;;;4911591;28;20032;-87
2022/02/18 03:30:52;;;;;;;19.55;2.53;;;7.00;99.90;;;;;;4918644;28;20046;-87
2022/02/18 03:33:17;;;;;;;15.18;2.15;;;7.00;99.90;;;;;;4926560;28;20372;-87
2022/02/18 03:35:43;;;;;;;14.90;2.10;;;7.10;99.90;;;;;;4918357;28;20062;-87
2022/02/18 03:38:09;;;;;;;19.95;4.20;;;7.00;99.90;;;;;;4924954;28;20034;-87
2022/02/18 03:40:34;;;;;;;23.23;3.17;;;7.00;99.90;;;;;;4914390;28;20032;-87
2022/02/18 03:43:00;;;;;;;14.82;2.15;;;7.00;99.90;;;;;;4937194;28;20054;-87
2022/02/18 03:45:25;;;;;;;20.48;2.53;;;7.00;99.90;;;;;;4921766;28;20031;-87
2022/02/18 03:47:51;;;;;;;22.85;2.88;;;7.00;99.90;;;;;;4918478;28;20047;-87
2022/02/18 03:50:17;;;;;;;16.60;2.40;;;7.00;99.90;;;;;;4920180;28;20118;-87
2022/02/18 03:52:42;;;;;;;23.27;4.70;;;7.10;99.90;;;;;;4920943;28;20507;-87
2022/02/18 03:55:08;;;;;;;14.27;2.97;;;7.00;99.90;;;;;;4925781;28;20444;-88
2022/02/18 03:57:33;;;;;;;17.75;3.03;;;7.00;99.90;;;;;;4918670;28;20039;-87
2022/02/18 03:59:59;;;;;;;21.45;3.50;;;7.00;99.90;;;;;;4919836;28;20081;-87
2022/02/18 04:02:24;;;;;;;16.77;2.70;;;7.00;99.90;;;;;;4924835;28;20093;-87
2022/02/18 04:04:50;;;;;;;27.58;3.97;;;7.10;99.90;;;;;;4913879;28;20038;-87
2022/02/18 04:07:15;;;;;;;31.33;3.80;;;7.00;99.90;;;;;;4921582;28;20035;-88
2022/02/18 04:09:41;;;;;;;14.27;2.80;;;7.00;99.90;;;;;;4908035;28;20043;-87
2022/02/18 04:12:07;;;;;;;28.58;4.03;;;7.00;99.90;;;;;;4912937;28;20042;-87
2022/02/18 04:14:32;;;;;;;15.85;2.47;;;7.00;99.90;;;;;;4918303;28;20155;-87
2022/02/18 04:16:58;;;;;;;13.80;2.30;;;7.00;99.90;;;;;;4925494;28;20062;-88
2022/02/18 04:19:23;;;;;;;17.58;2.88;;;7.00;99.90;;;;;;4919257;28;20039;-88
2022/02/18 04:21:49;;;;;;;17.70;3.00;;;7.00;99.90;;;;;;4920172;28;20436;-87
2022/02/18 04:24:14;;;;;;;18.17;3.42;;;7.00;99.90;;;;;;4917450;28;20039;-87
2022/02/18 04:26:40;;;;;;;14.45;4.05;;;7.00;99.90;;;;;;4912593;28;20062;-87
2022/02/18 04:29:06;;;;;;;22.90;3.28;;;7.00;99.90;;;;;;4918739;28;20034;-87
2022/02/18 04:31:31;;;;;;;15.57;2.72;;;7.00;99.90;;;;;;4910246;28;20027;-87
2022/02/18 04:33:57;;;;;;;17.33;2.90;;;7.00;99.90;;;;;;4922986;28;20038;-87
2022/02/18 04:36:22;;;;;;;22.67;3.28;;;7.00;99.90;;;;;;4920239;28;20395;-87
2022/02/18 04:38:48;;;;;;;17.92;2.70;;;7.00;99.90;;;;;;4917533;28;20475;-87
2022/02/18 04:41:13;;;;;;;16.88;2.00;;;6.90;99.90;;;;;;4911156;28;20081;-87
2022/02/18 04:43:39;;;;;;;16.80;2.90;;;7.00;99.90;;;;;;4908119;28;20480;-87
2022/02/18 04:46:04;;;;;;;23.88;3.60;;;7.00;99.90;;;;;;4921752;28;20066;-87
2022/02/18 04:48:30;;;;;;;10.10;2.50;;;7.00;99.90;;;;;;4924277;28;20055;-87
2022/02/18 04:51:17;;;;;;;14.65;3.20;;;7.00;99.90;;;;;;4928071;28;20039;-87
2022/02/18 04:53:42;;;;;;;23.48;3.47;;;7.00;99.90;;;;;;4933403;28;20027;-87
2022/02/18 04:56:08;;;;;;;19.48;4.30;;;7.00;99.90;;;;;;4920136;28;20037;-87
2022/02/18 04:58:34;;;;;;;20.30;2.50;;;7.10;99.90;;;;;;4912264;28;20039;-87
2022/02/18 05:00:59;;;;;;;17.85;2.65;;;7.10;99.90;;;;;;4912850;28;20121;-87
2022/02/18 05:03:43;;;;;;;20.10;2.90;;;7.10;99.90;;;;;;4916676;28;20089;-87
2022/02/18 05:06:09;;;;;;;23.60;2.90;;;7.10;99.90;;;;;;4927198;28;20034;-87
2022/02/18 05:08:35;;;;;;;11.20;2.30;;;7.10;99.90;;;;;;4914520;28;20071;-87
2022/02/18 05:11:01;;;;;;;18.95;2.80;;;7.10;99.90;;;;;;4921573;28;20078;-87
2022/02/18 05:16:32;;;;;;;21.58;3.42;;;7.10;99.90;;;;;;4926479;28;20400;-87
2022/02/18 05:18:58;;;;;;;14.77;2.60;;;7.10;99.90;;;;;;4917296;28;20059;-87
2022/02/18 05:21:24;;;;;;;11.93;2.90;;;7.10;99.90;;;;;;4917989;28;20483;-87
2022/02/18 05:23:49;;;;;;;19.58;2.80;;;7.10;99.90;;;;;;4921773;28;20078;-87
2022/02/18 05:26:15;;;;;;;22.75;2.67;;;7.10;99.90;;;;;;4909562;28;20124;-87
2022/02/18 05:28:40;;;;;;;23.60;2.40;;;7.20;99.90;;;;;;4918776;28;20079;-87
2022/02/18 05:31:06;;;;;;;15.15;2.10;;;7.20;99.90;;;;;;4921951;28;20043;-87
2022/02/18 05:33:32;;;;;;;22.10;2.38;;;7.10;99.90;;;;;;4925208;28;20031;-87
2022/02/18 05:35:57;;;;;;;10.52;2.10;;;7.00;99.90;;;;;;4929262;28;20122;-88
2022/02/18 05:38:23;;;;;;;24.27;2.80;;;7.10;99.90;;;;;;4923102;28;20142;-87
2022/02/18 05:40:48;;;;;;;12.30;2.40;;;7.10;99.90;;;;;;4931501;28;20045;-87
2022/02/18 05:43:14;;;;;;;21.33;3.45;;;7.10;99.90;;;;;;4921008;28;20491;-87
2022/02/18 05:45:54;;;;;;;18.50;2.35;;;7.10;99.90;;;;;;4920909;28;20027;-88
2022/02/18 05:48:32;;;;;;;17.55;2.75;;;7.10;99.90;;;;;;4919114;28;20058;-87
2022/02/18 05:50:59;;;;;;;19.92;2.38;;;7.10;99.90;;;;;;4925581;28;20139;-87
2022/02/18 05:53:24;;;;;;;13.55;2.80;;;7.10;99.90;;;;;;4923558;28;20046;-88
2022/02/18 05:55:51;;;;;;;13.45;2.38;;;7.10;99.90;;;;;;4914868;28;20040;-88
2022/02/18 05:58:17;;;;;;;18.65;2.47;;;7.00;99.90;;;;;;4917999;28;20089;-88
2022/02/18 06:00:42;;;;;;;22.10;2.08;;;7.10;99.90;;;;;;4922287;28;20031;-88
2022/02/18 06:03:08;;;;;;;14.13;2.35;;;7.10;99.90;;;;;;4918400;28;20031;-89
2022/02/18 06:05:33;;;;;;;8.10;1.40;;;7.10;99.90;;;;;;4918169;28;20035;-89
2022/02/18 06:07:59;;;;;;;14.52;2.75;;;7.10;99.90;;;;;;4918653;28;20089;-89
2022/02/18 06:10:42;;;;;;;13.90;2.13;;;7.20;99.90;;;;;;4920514;28;20126;-88
2022/02/18 06:13:08;;;;;;;18.50;3.15;;;7.20;99.90;;;;;;4908185;28;20058;-88
2022/02/18 06:15:33;;;;;;;9.02;1.92;;;7.20;99.90;;;;;;4920603;28;20153;-88
2022/02/18 06:17:59;;;;;;;14.10;2.28;;;7.10;99.90;;;;;;4918515;28;20046;-88
2022/02/18 06:20:25;;;;;;;24.08;2.20;;;7.20;99.90;;;;;;4926799;28;20109;-88
2022/02/18 06:22:51;;;;;;;13.60;2.00;;;7.20;99.90;;;;;;4925529;28;20050;-89
2022/02/18 06:25:16;;;;;;;12.38;1.90;;;7.10;99.90;;;;;;4925809;28;20129;-90
2022/02/18 06:27:42;;;;;;;7.22;1.20;;;7.10;99.90;;;;;;4913722;28;20050;-89
2022/02/18 06:30:08;;;;;;;15.77;2.55;;;7.10;99.90;;;;;;4928784;28;20039;-88
2022/02/18 06:32:34;;;;;;;12.82;2.92;;;7.10;99.90;;;;;;4935441;28;20094;-89
2022/02/18 06:35:00;;;;;;;13.65;2.78;;;7.10;99.90;;;;;;4935662;28;20046;-89
2022/02/18 06:37:25;;;;;;;13.55;1.63;;;7.00;99.90;;;;;;4921120;28;20099;-89
2022/02/18 06:39:51;;;;;;;19.60;1.88;;;7.00;99.90;;;;;;4925971;28;20027;-90
2022/02/18 06:42:17;;;;;;;19.35;2.58;;;7.00;99.90;;;;;;4928895;28;20115;-90
2022/02/18 06:44:43;;;;;;;17.95;3.90;;;7.00;99.90;;;;;;4921904;28;20032;-90
2022/02/18 06:47:08;;;;;;;14.52;2.47;;;7.00;99.90;;;;;;4922631;28;20111;-90
2022/02/18 06:49:34;;;;;;;16.30;2.50;;;7.00;99.90;;;;;;4934097;28;20047;-90
2022/02/18 06:51:59;;;;;;;9.05;2.08;;;7.00;99.90;;;;;;4911900;28;20050;-91
2022/02/18 06:54:28;;;;;;;10.27;2.20;;;7.00;99.90;;;;;;4920223;28;20031;-92
2022/02/18 06:56:57;;;;;;;16.35;2.20;;;6.90;99.90;;;;;;4918442;28;20027;-91
2022/02/18 06:59:23;;;;;;;14.70;2.13;;;7.00;99.90;;;;;;4906726;29;20111;-91
2022/02/18 07:01:54;;;;;;;15.65;2.88;;;6.90;99.90;;;;;;4915710;28;20063;-90
2022/02/18 07:04:28;;;;;;;10.57;1.88;;;6.90;99.90;;;;;;4902828;28;20035;-90
2022/02/18 07:07:00;;;;;;;19.38;2.28;;;6.80;99.90;;;;;;4928575;28;20090;-90
2022/02/18 07:09:59;;;;;;;14.82;2.38;;;6.90;99.90;;;;;;4886167;28;20027;-90
2022/02/18 07:13:16;;;;;;;14.85;2.25;;;6.90;99.90;;;;;;4921961;28;20027;-91
2022/02/18 07:16:00;;;;;;;8.48;2.03;;;6.90;99.90;;;;;;4942426;28;20042;-90
2022/02/18 08:08:20;;;;;;;15.40;3.65;;;7.10;99.90;;;;;;4953535;26;20031;-91
2022/02/18 08:10:53;;;;;;;16.98;3.20;;;7.20;99.90;;;;;;4934214;28;20023;-91
2022/02/18 08:13:42;;;;;;;15.45;2.75;;;7.20;99.90;;;;;;4926010;28;20027;-91
2022/02/18 08:16:21;;;;;;;8.77;1.98;;;7.20;99.90;;;;;;4925709;28;20046;-90
2022/02/18 08:18:48;;;;;;;8.10;1.48;;;7.30;99.90;;;;;;4924438;28;20019;-91
2022/02/18 08:21:29;;;;;;;23.58;2.80;;;7.40;99.90;;;;;;4927453;28;20133;-91
2022/02/18 08:24:10;;;;;;;;;;;;;;;;;;;;;
2022/02/18 08:30:53;;;;;;;;;;;;;;;;;;;;;
2022/02/18 08:33:33;;;;;;;22.55;3.50;;;7.60;99.90;;;;;;4846217;29;20125;-90
2022/02/18 08:36:06;;;;;;;10.68;2.65;;;7.60;99.90;;;;;;4835507;29;20385;-92
2022/02/18 08:38:40;;;;;;;11.00;1.92;;;7.60;99.90;;;;;;4861597;29;20060;-90
2022/02/18 08:41:48;;;;;;;;;;;;;;;;;;;;;
2022/02/18 08:47:06;;;;;;;15.48;2.47;;;7.80;99.90;;;;;;4854064;29;20040;-90
2022/02/18 08:50:40;;;;;;;;;;;;;;;;;;;;;
2022/02/18 08:53:41;;;;;;;10.02;2.17;;;7.80;99.90;;;;;;4880939;29;20071;-91
2022/02/18 08:56:28;;;;;;;16.23;3.38;;;7.90;99.90;;;;;;4905380;29;20073;-91
2022/02/18 08:58:57;;;;;;;11.38;3.67;;;7.90;99.90;;;;;;4939822;29;20027;-91
2022/02/18 09:01:55;;;;;;;15.32;2.95;;;7.80;99.90;;;;;;4897645;29;20020;-91
2022/02/18 09:04:33;;;;;;;11.50;2.53;;;8.00;99.90;;;;;;4873599;29;20036;-90
2022/02/18 09:07:01;;;;;;;11.63;2.05;;;8.00;99.90;;;;;;4879792;29;20384;-91
2022/02/18 09:09:27;;;;;;;7.05;1.35;;;8.10;99.90;;;;;;4884589;29;20040;-90
2022/02/18 09:11:53;;;;;;;10.07;2.47;;;8.00;99.90;;;;;;4915977;29;20094;-91
2022/02/18 09:14:43;;;;;;;6.60;1.63;;;8.10;99.90;;;;;;4917689;29;20091;-91
2022/02/18 09:17:40;;;;;;;;;;;;;;;;;;;;;
2022/02/18 09:20:52;;;;;;;7.47;1.80;;;8.10;99.90;;;;;;4905269;29;20050;-91
2022/02/18 09:23:39;;;;;;;;;;;8.10;99.90;;;;;;4876015;29;20090;-91
2022/02/18 09:26:55;;;;;;;;;;;;;;;;;;;;;
2022/02/18 09:31:12;;;;;;;;;;;;;;;;;;;;;
2022/02/18 09:33:21;;;;;;;6.55;1.25;;;8.20;99.90;;;;;;4827229;29;20016;-91
2022/02/18 09:36:23;;;;;;;10.32;2.00;;;8.30;99.90;;;;;;4894504;29;20058;-91
2022/02/18 09:39:16;;;;;;;3.60;1.35;;;8.40;99.90;;;;;;4936730;28;20028;-90
2022/02/18 09:42:04;;;;;;;6.85;1.15;;;8.50;99.90;;;;;;4928688;29;20095;-90
2022/02/18 09:44:53;;;;;;;8.82;1.65;;;8.40;99.90;;;;;;4886249;29;20047;-90
2022/02/18 09:47:39;;;;;;;;;;;8.50;99.90;;;;;;4882823;29;20051;-89
2022/02/18 09:50:57;;;;;;;10.73;2.33;;;8.50;99.90;;;;;;4561657;29;10000404;-90
2022/02/18 09:54:27;;;;;;;;;;;;;;;;;;;;;
2022/02/18 14:11:26;;;;;;;1.10;0.32;;;12.30;99.90;;;;;;4989583;28;20042;-90
2022/02/18 14:13:52;;;;;;;0.13;0.13;;;12.40;99.90;;;;;;4965620;28;20138;-88
2022/02/18 14:16:28;;;;;;;0.20;0.20;;;12.40;99.90;;;;;;4974429;28;20115;-88
2022/02/18 14:18:59;;;;;;;2.15;0.30;;;12.40;99.90;;;;;;4977839;28;20019;-88
2022/02/18 14:21:38;;;;;;;0.17;0.17;;;12.40;99.90;;;;;;4983765;28;20379;-88
2022/02/18 14:24:06;;;;;;;1.27;0.25;;;12.40;99.90;;;;;;4961518;28;20030;-88
2022/02/18 14:26:37;;;;;;;3.22;0.52;;;12.30;99.90;;;;;;4948626;28;20575;-91
2022/02/18 14:36:16;;;;;;;2.72;0.73;;;11.30;99.90;;;;;;4967141;28;20041;-90
2022/02/18 14:39:17;;;;;;;1.90;0.30;;;11.00;99.90;;;;;;4880822;29;20044;-89
2022/02/18 16:46:51;;;;;;;5.18;1.05;;;9.80;99.90;;;;;;1079831;23;20282;-90
2022/02/18 16:49:18;;;;;;;6.93;1.65;;;9.80;99.90;;;;;;4946371;28;20043;-88
2022/02/18 16:51:51;;;;;;;12.65;2.38;;;9.80;99.90;;;;;;4927254;28;20340;-89
2022/02/18 16:54:18;;;;;;;12.48;2.50;;;9.90;99.90;;;;;;4944144;28;20453;-89
2022/02/18 16:56:45;;;;;;;6.82;0.85;;;9.80;99.90;;;;;;4943089;28;20035;-88
2022/02/18 16:59:16;;;;;;;9.20;1.73;;;9.80;99.90;;;;;;4920363;28;20113;-90
2022/02/18 17:01:43;;;;;;;4.82;1.05;;;9.80;99.90;;;;;;4943575;28;20031;-89
2022/02/18 17:04:08;;;;;;;6.88;0.95;;;9.80;99.90;;;;;;4905544;28;20496;-89
2022/02/18 17:06:34;;;;;;;9.18;1.92;;;9.90;99.90;;;;;;4942116;28;20043;-89
2022/02/18 17:09:00;;;;;;;8.43;2.40;;;9.80;99.90;;;;;;4944473;28;20034;-89
2022/02/18 17:11:28;;;;;;;8.00;1.30;;;9.80;99.90;;;;;;4956082;28;20039;-89
2022/02/18 17:13:54;;;;;;;10.88;1.50;;;9.80;99.90;;;;;;4954463;28;20038;-89
2022/02/18 17:16:21;;;;;;;6.28;0.90;;;9.80;99.90;;;;;;4918928;28;20067;-89
2022/02/18 17:18:47;;;;;;;11.82;3.08;;;9.80;99.90;;;;;;4933778;28;20484;-89
2022/02/18 17:21:25;;;;;;;7.05;1.50;;;9.70;99.90;;;;;;4949115;28;20042;-88
2022/02/18 17:24:09;;;;;;;4.70;1.20;;;9.80;99.90;;;;;;4943259;28;20043;-89
2022/02/18 17:26:35;;;;;;;11.65;2.40;;;9.70;99.90;;;;;;4939914;28;20244;-88
2022/02/18 17:29:01;;;;;;;8.68;1.77;;;9.70;99.90;;;;;;4930494;28;20415;-89
2022/02/18 17:31:27;;;;;;;11.95;2.05;;;9.70;99.90;;;;;;4925692;28;20035;-88
2022/02/18 17:33:53;;;;;;;14.88;3.40;;;9.70;99.90;;;;;;4917110;28;20034;-88
2022/02/18 17:36:41;;;;;;;10.93;2.33;;;9.70;99.90;;;;;;4907788;28;20527;-89
2022/02/18 17:39:07;;;;;;;6.95;1.85;;;9.70;99.90;;;;;;4935795;28;20042;-88
2022/02/18 17:41:33;;;;;;;8.98;2.45;;;9.70;99.90;;;;;;4958584;28;20046;-88
2022/02/18 17:44:00;;;;;;;13.93;2.65;;;9.60;99.90;;;;;;4941872;29;20043;-90
2022/02/18 17:46:28;;;;;;;14.90;3.78;;;9.60;99.90;;;;;;4892047;29;20122;-89
2022/02/18 17:48:57;;;;;;;25.50;3.95;;;9.60;99.90;;;;;;4932211;28;20478;-88
2022/02/18 17:51:25;;;;;;;13.10;2.90;;;9.60;99.90;;;;;;4918007;28;20069;-88
2022/02/18 17:53:51;;;;;;;14.98;1.83;;;9.60;99.90;;;;;;4917856;28;20555;-88
2022/02/18 17:56:17;;;;;;;8.13;1.98;;;9.60;99.90;;;;;;4934159;28;20035;-88
2022/02/18 17:58:57;;;;;;;12.27;2.67;;;9.50;99.90;;;;;;4947796;28;20123;-89
2022/02/18 18:01:25;;;;;;;15.48;2.67;;;9.50;99.90;;;;;;4939459;28;21040;-87
2022/02/18 18:03:51;;;;;;;13.35;2.97;;;9.50;99.90;;;;;;4940791;28;20043;-86
2022/02/18 18:06:17;;;;;;;10.38;2.55;;;9.50;99.90;;;;;;4938960;28;20036;-88
2022/02/18 18:08:42;;;;;;;9.13;2.00;;;9.40;99.90;;;;;;4267301;28;10000412;-88
2022/02/18 18:11:10;;;;;;;13.15;3.10;;;9.40;99.90;;;;;;4939254;28;20107;-88
2022/02/18 18:13:36;;;;;;;8.18;1.83;;;9.40;99.90;;;;;;4921278;28;20039;-88
2022/02/18 18:16:03;;;;;;;14.25;2.25;;;9.40;99.90;;;;;;4915991;29;20038;-87
2022/02/18 18:18:29;;;;;;;13.52;3.45;;;9.30;99.90;;;;;;4916471;28;20066;-87
2022/02/18 18:20:55;;;;;;;5.20;1.42;;;9.30;99.90;;;;;;4925314;28;20114;-88
2022/02/18 18:23:20;;;;;;;8.13;2.55;;;9.30;99.90;;;;;;4931719;28;20035;-88
2022/02/18 18:25:47;;;;;;;8.23;1.92;;;9.20;99.90;;;;;;4913687;28;20032;-87
2022/02/18 18:28:13;;;;;;;9.00;2.60;;;9.20;99.90;;;;;;4928141;29;20037;-89
2022/02/18 18:30:41;;;;;;;6.15;1.80;;;9.20;99.90;;;;;;4921831;28;20091;-88
2022/02/18 18:33:07;;;;;;;5.75;1.63;;;9.20;99.90;;;;;;4935181;29;20078;-87
2022/02/18 18:35:34;;;;;;;6.50;1.48;;;9.10;99.90;;;;;;4933488;28;20453;-87
2022/02/18 18:38:00;;;;;;;11.68;2.20;;;9.20;99.90;;;;;;4918560;28;20062;-87
2022/02/18 18:40:26;;;;;;;13.38;1.58;;;9.10;99.90;;;;;;4931615;28;20047;-87
2022/02/18 18:42:55;;;;;;;9.73;1.92;;;9.10;99.90;;;;;;4907552;28;20036;-88
2022/02/18 18:45:21;;;;;;;11.00;1.67;;;9.10;99.90;;;;;;4938055;28;20067;-88
2022/02/18 18:47:47;;;;;;;7.38;1.80;;;9.00;99.90;;;;;;4941068;28;20047;-88
2022/02/18 18:50:14;;;;;;;10.38;2.30;;;9.00;99.90;;;;;;4901912;28;20118;-89
2022/02/18 18:52:42;;;;;;;12.43;1.48;;;9.00;99.90;;;;;;4941453;28;20567;-88
2022/02/18 18:55:14;;;;;;;8.63;2.05;;;8.90;99.90;;;;;;4947493;28;20032;-89
2022/02/18 18:57:40;;;;;;;5.95;1.67;;;8.80;99.90;;;;;;4902254;28;20078;-88
2022/02/18 19:00:06;;;;;;;8.25;1.70;;;9.00;99.90;;;;;;4943651;28;20035;-89
2022/02/18 19:02:32;;;;;;;8.90;1.42;;;8.90;99.90;;;;;;4934442;28;20032;-89
2022/02/18 19:04:58;;;;;;;7.60;2.28;;;8.90;99.90;;;;;;4937425;28;20031;-89
2022/02/18 19:07:24;;;;;;;5.47;1.10;;;8.80;99.90;;;;;;4937786;28;20507;-87
2022/02/18 19:09:50;;;;;;;4.28;1.20;;;8.80;99.90;;;;;;4895595;28;20063;-87
2022/02/18 19:12:19;;;;;;;6.57;1.42;;;8.70;99.90;;;;;;4949327;28;20066;-86
2022/02/18 19:14:46;;;;;;;6.47;1.23;;;8.80;99.90;;;;;;4881865;29;20036;-87
2022/02/18 19:17:15;;;;;;;3.92;1.05;;;8.70;99.90;;;;;;4914056;29;20032;-87
2022/02/18 19:20:40;;;;;;;6.97;1.73;;;8.70;99.90;;;;;;4918442;28;20040;-87
2022/02/18 19:23:09;;;;;;;6.53;1.35;;;8.70;99.90;;;;;;4925959;28;20030;-87
2022/02/18 19:25:35;;;;;;;6.32;0.85;;;8.60;99.90;;;;;;4951027;28;20110;-87
2022/02/18 19:28:01;;;;;;;7.63;1.75;;;8.70;99.90;;;;;;4914860;28;20071;-88
2022/02/18 19:30:27;;;;;;;10.98;1.75;;;8.60;99.90;;;;;;4913357;29;20122;-88
2022/02/18 19:32:52;;;;;;;15.73;2.05;;;8.40;99.90;;;;;;4560024;28;10000560;-88
2022/02/18 19:35:20;;;;;;;7.15;1.40;;;8.40;99.90;;;;;;4922607;29;20055;-89
2022/02/18 19:37:51;;;;;;;6.80;1.27;;;8.30;99.90;;;;;;4909563;28;20031;-89
2022/02/18 19:40:19;;;;;;;4.60;1.73;;;8.20;99.90;;;;;;4906248;28;20042;-88
2022/02/18 19:42:50;;;;;;;14.48;2.55;;;8.10;99.90;;;;;;4915009;28;20041;-88
2022/02/18 19:45:17;;;;;;;14.18;1.85;;;8.00;99.90;;;;;;4935943;28;20041;-88
2022/02/18 19:47:42;;;;;;;4.85;1.45;;;8.00;99.90;;;;;;4923789;28;20158;-88
2022/02/18 19:50:09;;;;;;;8.95;1.85;;;8.10;99.90;;;;;;4951226;28;20037;-87
2022/02/18 19:52:35;;;;;;;6.40;1.05;;;8.00;99.90;;;;;;4924071;28;20035;-87
2022/02/18 19:55:00;;;;;;;4.80;0.82;;;8.00;99.90;;;;;;4915881;28;20419;-86
2022/02/18 19:57:26;;;;;;;6.10;1.52;;;8.10;99.90;;;;;;4925591;29;20107;-88
2022/02/18 19:59:53;;;;;;;7.53;2.53;;;7.90;99.90;;;;;;4928518;28;20043;-86
2022/02/18 20:02:19;;;;;;;1.27;0.70;;;8.10;99.90;;;;;;4908500;28;20562;-86
2022/02/18 20:04:52;;;;;;;9.05;1.67;;;8.10;99.90;;;;;;4906133;28;20042;-86
2022/02/18 20:07:27;;;;;;;7.65;1.85;;;8.00;99.90;;;;;;4938878;28;20038;-86
2022/02/18 20:09:54;;;;;;;2.65;0.70;;;8.00;99.90;;;;;;4904285;28;20035;-87
2022/02/18 20:12:25;;;;;;;16.25;2.13;;;8.00;99.90;;;;;;4903708;28;20054;-87
2022/02/18 20:14:58;;;;;;;8.18;1.67;;;8.10;99.90;;;;;;4905704;28;20042;-87
2022/02/18 20:17:24;;;;;;;9.02;2.00;;;8.00;99.90;;;;;;4919840;28;20066;-86
2022/02/18 20:19:50;;;;;;;7.80;1.15;;;8.10;99.90;;;;;;4919292;28;20850;-86
2022/02/18 20:22:16;;;;;;;8.65;1.67;;;8.00;99.90;;;;;;4921852;29;20046;-86
2022/02/18 20:24:44;;;;;;;3.30;0.50;;;7.90;99.90;;;;;;4925312;28;20031;-86
2022/02/18 20:27:12;;;;;;;5.70;1.42;;;7.90;99.90;;;;;;4924332;28;20379;-86
2022/02/18 20:30:04;;;;;;;12.75;1.33;;;7.80;99.90;;;;;;4908821;28;20105;-88
2022/02/18 20:32:32;;;;;;;7.63;1.65;;;7.80;99.90;;;;;;4921198;28;20130;-87
2022/02/18 20:35:21;;;;;;;8.48;1.67;;;7.90;99.90;;;;;;4909402;28;20515;-87
2022/02/18 20:37:50;;;;;;;3.72;0.80;;;7.80;99.90;;;;;;4936967;28;20027;-87
2022/02/18 20:40:36;;;;;;;4.68;1.50;;;7.80;99.90;;;;;;4928522;28;20090;-88
2022/02/18 20:43:12;;;;;;;9.18;1.45;;;7.80;99.90;;;;;;4887975;28;20035;-87